ADDS TAF Board (Experimental) INFO

IDs: Format: Expanded Condensed

Updated at: 0607 UTC 29 Nov 2014

KMIA - Miami Intl, FL, US

Issued at 0536 UTC 29 Nov 2014
Time0553Z29/07Z29/08Z29/09Z29/10Z29/11Z29/12Z29/13Z29/14Z29/15Z29/16Z29/17Z29/18Z29/19Z
TypeOBSPRVLPRVLPRVLPRVLPRVLPRVLPRVLPRVLPRVLPRVLPRVLPRVLPRVL
VIS10>6>6>6>6>6>6>6>6>6>6>6>6>6
CIG----------------------------
CoverSCTFEWFEWFEWFEWFEWFEWFEWFEWFEWFEWFEWFEWFEW
FltCat--VFRVFRVFRVFRVFRVFRVFRVFRVFRVFRVFRVFRVFR
WX----------------------------
WDir340340340340340340340340340340340340340340
WSpd88888888888888
WGst----------------------------
R08/26
XWnd88888888888888
HWnd-2-2-2-2-2-2-2-2-2-2-2-2-2-2
R09/27
XWnd88888888888888
HWnd-2-2-2-2-2-2-2-2-2-2-2-2-2-2
R12/30
XWnd55555555555555
HWnd-6-6-6-6-6-6-6-6-6-6-6-6-6-6
Raw TAF
KMIA 290536Z 2906/3006 34008KT P6SM FEW050
  FM292100 07011KT P6SM SCT050 SCT250


Raw METAR
KMIA 290553Z 34008KT 10SM SCT049 13/09 A3019 RMK AO2 SLP222 T01330094 10183 20133 58005

TAF Board Legend

Hazard VFR MVFR IFR LIFR
Visibility (sm) >5 3≤X≤5 1≤X<3 <1
Ceiling (100 ft) >30 10≤X≤30 5≤X<10 <5
Wind Speed (kt) <10 10≤X<20 20≤X<30 ≥30
Wind Gust (kt) <15 15≤X<25 25≤X<35 ≥35
Weather No Wx Reported VCTS,-TS,-FZRA TS,FZRA +TS,+FZRA


Page loaded:  06:07 UTC  |   10:07 PM Pacific  |   11:07 PM Mountain  |   12:07 AM Central  |   01:07 AM Eastern

 

ADVISORIES

FORECASTS

FORECASTS

OBSERVATIONS

USER TOOLS

ABOUT US